sensor_id;sensor_type;location;lat;lon;timestamp;P1;durP1;ratioP1;P2;durP2;ratioP2
16179;SDS011;8196;49.428;10.906;2024-03-22T00:01:54;11.52;;;8.93;;
16179;SDS011;8196;49.428;10.906;2024-03-22T00:04:20;12.75;;;9.57;;
16179;SDS011;8196;49.428;10.906;2024-03-22T00:06:47;13.40;;;10.93;;
16179;SDS011;8196;49.428;10.906;2024-03-22T00:09:15;13.15;;;10.40;;
16179;SDS011;8196;49.428;10.906;2024-03-22T00:11:42;12.50;;;10.00;;
16179;SDS011;8196;49.428;10.906;2024-03-22T00:14:09;14.90;;;11.47;;
16179;SDS011;8196;49.428;10.906;2024-03-22T00:16:35;12.93;;;10.57;;
16179;SDS011;8196;49.428;10.906;2024-03-22T00:19:01;12.68;;;9.95;;
16179;SDS011;8196;49.428;10.906;2024-03-22T00:23:55;14.55;;;10.73;;
16179;SDS011;8196;49.428;10.906;2024-03-22T00:26:21;15.80;;;12.23;;
16179;SDS011;8196;49.428;10.906;2024-03-22T00:28:47;13.02;;;10.43;;
16179;SDS011;8196;49.428;10.906;2024-03-22T00:31:14;11.93;;;10.00;;
16179;SDS011;8196;49.428;10.906;2024-03-22T00:33:40;11.25;;;9.45;;
16179;SDS011;8196;49.428;10.906;2024-03-22T00:36:07;14.18;;;10.23;;
16179;SDS011;8196;49.428;10.906;2024-03-22T00:38:33;15.38;;;12.00;;
16179;SDS011;8196;49.428;10.906;2024-03-22T00:41:00;14.15;;;11.00;;
16179;SDS011;8196;49.428;10.906;2024-03-22T00:43:26;13.93;;;11.02;;
16179;SDS011;8196;49.428;10.906;2024-03-22T00:45:53;13.80;;;11.00;;
16179;SDS011;8196;49.428;10.906;2024-03-22T00:48:19;13.27;;;9.83;;
16179;SDS011;8196;49.428;10.906;2024-03-22T00:50:45;13.53;;;10.50;;
16179;SDS011;8196;49.428;10.906;2024-03-22T00:53:11;15.38;;;12.30;;
16179;SDS011;8196;49.428;10.906;2024-03-22T00:55:38;13.35;;;9.75;;
16179;SDS011;8196;49.428;10.906;2024-03-22T00:58:04;14.07;;;11.70;;
16179;SDS011;8196;49.428;10.906;2024-03-22T01:00:30;16.45;;;12.50;;
16179;SDS011;8196;49.428;10.906;2024-03-22T01:02:57;13.43;;;10.30;;
16179;SDS011;8196;49.428;10.906;2024-03-22T01:05:23;14.10;;;10.47;;
16179;SDS011;8196;49.428;10.906;2024-03-22T01:07:51;12.20;;;9.57;;
16179;SDS011;8196;49.428;10.906;2024-03-22T01:10:17;11.95;;;9.35;;
16179;SDS011;8196;49.428;10.906;2024-03-22T01:12:44;10.93;;;9.00;;
16179;SDS011;8196;49.428;10.906;2024-03-22T01:15:10;13.45;;;11.00;;
16179;SDS011;8196;49.428;10.906;2024-03-22T01:17:36;17.05;;;12.80;;
16179;SDS011;8196;49.428;10.906;2024-03-22T01:20:03;19.27;;;14.02;;
16179;SDS011;8196;49.428;10.906;2024-03-22T01:22:30;14.77;;;11.70;;
16179;SDS011;8196;49.428;10.906;2024-03-22T01:24:56;18.42;;;13.18;;
16179;SDS011;8196;49.428;10.906;2024-03-22T01:27:23;13.20;;;10.05;;
16179;SDS011;8196;49.428;10.906;2024-03-22T01:29:49;12.55;;;9.73;;
16179;SDS011;8196;49.428;10.906;2024-03-22T01:32:15;14.43;;;10.30;;
16179;SDS011;8196;49.428;10.906;2024-03-22T01:34:41;16.25;;;11.65;;
16179;SDS011;8196;49.428;10.906;2024-03-22T01:37:08;14.60;;;10.88;;
16179;SDS011;8196;49.428;10.906;2024-03-22T01:39:34;13.20;;;9.65;;
16179;SDS011;8196;49.428;10.906;2024-03-22T01:42:00;12.63;;;9.80;;
16179;SDS011;8196;49.428;10.906;2024-03-22T01:44:27;16.63;;;11.48;;
16179;SDS011;8196;49.428;10.906;2024-03-22T01:46:54;13.23;;;9.90;;
16179;SDS011;8196;49.428;10.906;2024-03-22T01:49:21;16.13;;;12.07;;
16179;SDS011;8196;49.428;10.906;2024-03-22T01:51:47;13.50;;;10.02;;
16179;SDS011;8196;49.428;10.906;2024-03-22T01:54:14;11.37;;;9.67;;
16179;SDS011;8196;49.428;10.906;2024-03-22T01:56:42;10.82;;;8.93;;
16179;SDS011;8196;49.428;10.906;2024-03-22T01:59:08;12.10;;;9.13;;
16179;SDS011;8196;49.428;10.906;2024-03-22T02:01:35;15.27;;;11.77;;
16179;SDS011;8196;49.428;10.906;2024-03-22T02:04:02;17.73;;;12.82;;
16179;SDS011;8196;49.428;10.906;2024-03-22T02:06:28;16.00;;;12.60;;
16179;SDS011;8196;49.428;10.906;2024-03-22T02:08:55;16.55;;;12.40;;
16179;SDS011;8196;49.428;10.906;2024-03-22T02:11:22;17.27;;;12.60;;
16179;SDS011;8196;49.428;10.906;2024-03-22T02:13:49;16.83;;;12.35;;
16179;SDS011;8196;49.428;10.906;2024-03-22T02:16:15;12.82;;;9.93;;
16179;SDS011;8196;49.428;10.906;2024-03-22T02:18:42;13.65;;;10.27;;
16179;SDS011;8196;49.428;10.906;2024-03-22T02:21:09;18.73;;;13.17;;
16179;SDS011;8196;49.428;10.906;2024-03-22T02:23:36;17.50;;;13.25;;
16179;SDS011;8196;49.428;10.906;2024-03-22T02:26:03;18.95;;;13.43;;
16179;SDS011;8196;49.428;10.906;2024-03-22T02:28:30;18.55;;;13.30;;
16179;SDS011;8196;49.428;10.906;2024-03-22T02:30:57;18.30;;;12.85;;
16179;SDS011;8196;49.428;10.906;2024-03-22T02:33:23;20.40;;;13.68;;
16179;SDS011;8196;49.428;10.906;2024-03-22T02:35:50;17.92;;;13.38;;
16179;SDS011;8196;49.428;10.906;2024-03-22T02:38:16;15.18;;;10.63;;
16179;SDS011;8196;49.428;10.906;2024-03-22T02:40:43;12.33;;;9.50;;
16179;SDS011;8196;49.428;10.906;2024-03-22T02:43:10;12.00;;;9.43;;
16179;SDS011;8196;49.428;10.906;2024-03-22T02:45:36;11.90;;;8.80;;
16179;SDS011;8196;49.428;10.906;2024-03-22T02:48:03;10.55;;;8.07;;
16179;SDS011;8196;49.428;10.906;2024-03-22T02:50:33;9.80;;;7.70;;
16179;SDS011;8196;49.428;10.906;2024-03-22T02:52:59;10.80;;;8.57;;
16179;SDS011;8196;49.428;10.906;2024-03-22T02:55:26;12.13;;;9.53;;
16179;SDS011;8196;49.428;10.906;2024-03-22T02:57:52;12.25;;;9.45;;
16179;SDS011;8196;49.428;10.906;2024-03-22T03:00:18;17.50;;;12.93;;
16179;SDS011;8196;49.428;10.906;2024-03-22T03:02:45;17.92;;;12.38;;
16179;SDS011;8196;49.428;10.906;2024-03-22T03:05:11;15.98;;;11.20;;
16179;SDS011;8196;49.428;10.906;2024-03-22T03:07:38;15.65;;;11.23;;
16179;SDS011;8196;49.428;10.906;2024-03-22T03:10:04;14.85;;;11.48;;
16179;SDS011;8196;49.428;10.906;2024-03-22T03:12:31;17.10;;;11.55;;
16179;SDS011;8196;49.428;10.906;2024-03-22T03:14:58;18.25;;;12.65;;
16179;SDS011;8196;49.428;10.906;2024-03-22T03:17:24;17.83;;;12.80;;
16179;SDS011;8196;49.428;10.906;2024-03-22T03:19:50;16.60;;;12.05;;
16179;SDS011;8196;49.428;10.906;2024-03-22T03:22:17;18.58;;;12.75;;
16179;SDS011;8196;49.428;10.906;2024-03-22T03:24:43;22.13;;;15.73;;
16179;SDS011;8196;49.428;10.906;2024-03-22T03:27:09;23.47;;;16.20;;
16179;SDS011;8196;49.428;10.906;2024-03-22T03:29:36;20.42;;;14.05;;
16179;SDS011;8196;49.428;10.906;2024-03-22T03:32:02;17.95;;;12.30;;
16179;SDS011;8196;49.428;10.906;2024-03-22T03:34:29;16.23;;;12.10;;
16179;SDS011;8196;49.428;10.906;2024-03-22T03:36:55;15.43;;;11.43;;
16179;SDS011;8196;49.428;10.906;2024-03-22T03:39:23;21.50;;;13.98;;
16179;SDS011;8196;49.428;10.906;2024-03-22T03:41:50;21.95;;;14.65;;
16179;SDS011;8196;49.428;10.906;2024-03-22T03:44:16;15.98;;;11.48;;
16179;SDS011;8196;49.428;10.906;2024-03-22T03:46:42;15.90;;;11.75;;
16179;SDS011;8196;49.428;10.906;2024-03-22T03:49:09;18.83;;;12.30;;
16179;SDS011;8196;49.428;10.906;2024-03-22T03:51:35;19.08;;;13.43;;
16179;SDS011;8196;49.428;10.906;2024-03-22T03:54:02;22.42;;;14.57;;
16179;SDS011;8196;49.428;10.906;2024-03-22T03:56:28;21.50;;;14.23;;
16179;SDS011;8196;49.428;10.906;2024-03-22T03:58:54;20.65;;;14.57;;
16179;SDS011;8196;49.428;10.906;2024-03-22T04:01:21;19.20;;;13.65;;
16179;SDS011;8196;49.428;10.906;2024-03-22T04:03:48;17.73;;;12.95;;
16179;SDS011;8196;49.428;10.906;2024-03-22T04:06:14;20.13;;;14.23;;
16179;SDS011;8196;49.428;10.906;2024-03-22T04:08:41;18.77;;;13.30;;
16179;SDS011;8196;49.428;10.906;2024-03-22T04:11:07;16.93;;;12.47;;
16179;SDS011;8196;49.428;10.906;2024-03-22T04:15:59;17.45;;;12.15;;
16179;SDS011;8196;49.428;10.906;2024-03-22T04:18:26;19.02;;;13.07;;
16179;SDS011;8196;49.428;10.906;2024-03-22T04:20:53;18.25;;;13.25;;
16179;SDS011;8196;49.428;10.906;2024-03-22T04:23:19;18.85;;;13.00;;
16179;SDS011;8196;49.428;10.906;2024-03-22T04:28:20;16.38;;;11.60;;
16179;SDS011;8196;49.428;10.906;2024-03-22T04:30:54;20.70;;;14.00;;
16179;SDS011;8196;49.428;10.906;2024-03-22T04:35:48;23.98;;;16.15;;
16179;SDS011;8196;49.428;10.906;2024-03-22T04:38:14;22.05;;;15.70;;
16179;SDS011;8196;49.428;10.906;2024-03-22T04:40:40;25.77;;;16.85;;
16179;SDS011;8196;49.428;10.906;2024-03-22T04:43:07;21.23;;;15.40;;
16179;SDS011;8196;49.428;10.906;2024-03-22T04:45:33;20.17;;;13.70;;
16179;SDS011;8196;49.428;10.906;2024-03-22T04:48:03;19.80;;;13.75;;
16179;SDS011;8196;49.428;10.906;2024-03-22T04:50:30;22.98;;;14.68;;
16179;SDS011;8196;49.428;10.906;2024-03-22T04:52:56;19.77;;;13.93;;
16179;SDS011;8196;49.428;10.906;2024-03-22T04:55:23;19.70;;;13.77;;
16179;SDS011;8196;49.428;10.906;2024-03-22T04:57:49;20.88;;;14.63;;
16179;SDS011;8196;49.428;10.906;2024-03-22T05:00:16;21.63;;;14.18;;
16179;SDS011;8196;49.428;10.906;2024-03-22T05:02:42;20.80;;;14.90;;
16179;SDS011;8196;49.428;10.906;2024-03-22T05:05:08;21.27;;;14.38;;
16179;SDS011;8196;49.428;10.906;2024-03-22T05:07:35;22.45;;;15.32;;
16179;SDS011;8196;49.428;10.906;2024-03-22T05:10:02;22.83;;;15.37;;
16179;SDS011;8196;49.428;10.906;2024-03-22T05:12:28;24.00;;;15.85;;
16179;SDS011;8196;49.428;10.906;2024-03-22T05:14:55;25.40;;;16.13;;
16179;SDS011;8196;49.428;10.906;2024-03-22T05:17:21;24.13;;;15.93;;
16179;SDS011;8196;49.428;10.906;2024-03-22T05:19:47;25.25;;;16.67;;
16179;SDS011;8196;49.428;10.906;2024-03-22T05:22:14;23.00;;;16.40;;
16179;SDS011;8196;49.428;10.906;2024-03-22T05:24:40;25.73;;;16.77;;
16179;SDS011;8196;49.428;10.906;2024-03-22T05:27:06;22.10;;;14.88;;
16179;SDS011;8196;49.428;10.906;2024-03-22T05:29:32;24.15;;;15.93;;
16179;SDS011;8196;49.428;10.906;2024-03-22T05:31:59;22.90;;;15.45;;
16179;SDS011;8196;49.428;10.906;2024-03-22T05:34:25;24.37;;;16.03;;
16179;SDS011;8196;49.428;10.906;2024-03-22T05:36:52;23.50;;;15.90;;
16179;SDS011;8196;49.428;10.906;2024-03-22T05:39:19;21.67;;;15.18;;
16179;SDS011;8196;49.428;10.906;2024-03-22T05:41:45;21.38;;;14.63;;
16179;SDS011;8196;49.428;10.906;2024-03-22T05:44:12;23.80;;;15.77;;
16179;SDS011;8196;49.428;10.906;2024-03-22T05:46:38;20.40;;;14.30;;
16179;SDS011;8196;49.428;10.906;2024-03-22T05:49:05;21.05;;;14.82;;
16179;SDS011;8196;49.428;10.906;2024-03-22T05:51:31;19.27;;;14.18;;
16179;SDS011;8196;49.428;10.906;2024-03-22T05:53:57;16.58;;;11.63;;
16179;SDS011;8196;49.428;10.906;2024-03-22T05:56:24;14.43;;;10.70;;
16179;SDS011;8196;49.428;10.906;2024-03-22T05:58:50;18.63;;;13.45;;
16179;SDS011;8196;49.428;10.906;2024-03-22T06:01:17;20.20;;;14.60;;
16179;SDS011;8196;49.428;10.906;2024-03-22T06:03:43;18.58;;;14.40;;
16179;SDS011;8196;49.428;10.906;2024-03-22T06:06:09;23.17;;;15.90;;
16179;SDS011;8196;49.428;10.906;2024-03-22T06:08:37;23.30;;;16.00;;
16179;SDS011;8196;49.428;10.906;2024-03-22T06:11:06;23.20;;;15.65;;
16179;SDS011;8196;49.428;10.906;2024-03-22T06:13:33;18.10;;;12.57;;
16179;SDS011;8196;49.428;10.906;2024-03-22T06:16:00;17.35;;;11.63;;
16179;SDS011;8196;49.428;10.906;2024-03-22T06:18:26;17.45;;;12.40;;
16179;SDS011;8196;49.428;10.906;2024-03-22T06:20:53;17.25;;;11.63;;
16179;SDS011;8196;49.428;10.906;2024-03-22T06:23:21;24.47;;;16.30;;
16179;SDS011;8196;49.428;10.906;2024-03-22T06:25:54;22.30;;;15.55;;
16179;SDS011;8196;49.428;10.906;2024-03-22T06:28:21;22.92;;;16.15;;
16179;SDS011;8196;49.428;10.906;2024-03-22T06:30:48;22.90;;;15.70;;
16179;SDS011;8196;49.428;10.906;2024-03-22T06:33:14;19.30;;;13.52;;
16179;SDS011;8196;49.428;10.906;2024-03-22T06:35:42;20.63;;;14.25;;
16179;SDS011;8196;49.428;10.906;2024-03-22T06:38:08;24.52;;;16.25;;
16179;SDS011;8196;49.428;10.906;2024-03-22T06:40:35;23.80;;;15.93;;
16179;SDS011;8196;49.428;10.906;2024-03-22T06:43:01;21.15;;;15.07;;
16179;SDS011;8196;49.428;10.906;2024-03-22T06:45:28;21.77;;;16.00;;
16179;SDS011;8196;49.428;10.906;2024-03-22T06:47:54;25.85;;;17.20;;
16179;SDS011;8196;49.428;10.906;2024-03-22T06:50:21;25.33;;;17.97;;
16179;SDS011;8196;49.428;10.906;2024-03-22T06:52:53;23.77;;;15.48;;
16179;SDS011;8196;49.428;10.906;2024-03-22T06:55:19;19.35;;;13.65;;
16179;SDS011;8196;49.428;10.906;2024-03-22T06:57:46;19.35;;;14.82;;
16179;SDS011;8196;49.428;10.906;2024-03-22T07:00:13;16.58;;;12.63;;
16179;SDS011;8196;49.428;10.906;2024-03-22T07:02:40;22.20;;;16.05;;
16179;SDS011;8196;49.428;10.906;2024-03-22T07:05:07;23.02;;;16.52;;
16179;SDS011;8196;49.428;10.906;2024-03-22T07:07:33;17.77;;;12.50;;
16179;SDS011;8196;49.428;10.906;2024-03-22T07:10:00;22.15;;;16.20;;
16179;SDS011;8196;49.428;10.906;2024-03-22T07:12:26;23.10;;;16.83;;
16179;SDS011;8196;49.428;10.906;2024-03-22T07:14:53;22.65;;;15.95;;
16179;SDS011;8196;49.428;10.906;2024-03-22T07:17:19;21.95;;;15.88;;
16179;SDS011;8196;49.428;10.906;2024-03-22T07:19:52;20.45;;;14.95;;
16179;SDS011;8196;49.428;10.906;2024-03-22T07:22:19;19.45;;;14.02;;
16179;SDS011;8196;49.428;10.906;2024-03-22T07:24:46;20.92;;;14.98;;
16179;SDS011;8196;49.428;10.906;2024-03-22T07:27:13;17.92;;;13.63;;
16179;SDS011;8196;49.428;10.906;2024-03-22T07:29:40;19.85;;;14.38;;
16179;SDS011;8196;49.428;10.906;2024-03-22T07:32:07;18.25;;;14.25;;
16179;SDS011;8196;49.428;10.906;2024-03-22T07:34:33;17.60;;;12.93;;
16179;SDS011;8196;49.428;10.906;2024-03-22T07:37:00;15.98;;;11.90;;
16179;SDS011;8196;49.428;10.906;2024-03-22T07:39:26;13.30;;;9.82;;
16179;SDS011;8196;49.428;10.906;2024-03-22T07:41:53;11.45;;;9.00;;
16179;SDS011;8196;49.428;10.906;2024-03-22T07:44:19;12.48;;;9.75;;
16179;SDS011;8196;49.428;10.906;2024-03-22T07:46:46;12.35;;;9.07;;
16179;SDS011;8196;49.428;10.906;2024-03-22T07:49:12;13.77;;;10.43;;
16179;SDS011;8196;49.428;10.906;2024-03-22T07:51:39;10.90;;;8.20;;
16179;SDS011;8196;49.428;10.906;2024-03-22T07:54:05;13.35;;;10.55;;
16179;SDS011;8196;49.428;10.906;2024-03-22T07:56:31;12.45;;;9.60;;
16179;SDS011;8196;49.428;10.906;2024-03-22T07:58:58;13.50;;;10.75;;
16179;SDS011;8196;49.428;10.906;2024-03-22T08:01:25;10.57;;;8.50;;
16179;SDS011;8196;49.428;10.906;2024-03-22T08:03:51;8.55;;;7.60;;
16179;SDS011;8196;49.428;10.906;2024-03-22T08:06:17;9.93;;;7.63;;
16179;SDS011;8196;49.428;10.906;2024-03-22T08:08:44;7.63;;;6.45;;
16179;SDS011;8196;49.428;10.906;2024-03-22T08:11:10;8.20;;;6.65;;
16179;SDS011;8196;49.428;10.906;2024-03-22T08:13:36;8.38;;;6.63;;
16179;SDS011;8196;49.428;10.906;2024-03-22T08:16:03;14.75;;;11.57;;
16179;SDS011;8196;49.428;10.906;2024-03-22T08:18:31;15.77;;;12.47;;
16179;SDS011;8196;49.428;10.906;2024-03-22T08:20:58;13.82;;;11.52;;
16179;SDS011;8196;49.428;10.906;2024-03-22T08:23:24;16.35;;;12.70;;
16179;SDS011;8196;49.428;10.906;2024-03-22T08:25:51;15.27;;;11.45;;
16179;SDS011;8196;49.428;10.906;2024-03-22T08:28:17;15.35;;;12.50;;
16179;SDS011;8196;49.428;10.906;2024-03-22T08:30:43;11.52;;;9.73;;
16179;SDS011;8196;49.428;10.906;2024-03-22T08:33:10;12.50;;;10.45;;
16179;SDS011;8196;49.428;10.906;2024-03-22T08:35:37;9.95;;;8.80;;
16179;SDS011;8196;49.428;10.906;2024-03-22T08:38:03;9.40;;;7.97;;
16179;SDS011;8196;49.428;10.906;2024-03-22T08:40:37;9.77;;;8.27;;
16179;SDS011;8196;49.428;10.906;2024-03-22T08:43:03;9.10;;;7.55;;
16179;SDS011;8196;49.428;10.906;2024-03-22T08:45:30;8.85;;;7.78;;
16179;SDS011;8196;49.428;10.906;2024-03-22T08:47:56;7.25;;;6.55;;
16179;SDS011;8196;49.428;10.906;2024-03-22T08:50:22;11.85;;;9.85;;
16179;SDS011;8196;49.428;10.906;2024-03-22T08:52:48;13.97;;;10.63;;
16179;SDS011;8196;49.428;10.906;2024-03-22T08:55:15;11.48;;;8.95;;
16179;SDS011;8196;49.428;10.906;2024-03-22T08:57:41;8.40;;;7.50;;
16179;SDS011;8196;49.428;10.906;2024-03-22T09:00:09;7.95;;;7.13;;
16179;SDS011;8196;49.428;10.906;2024-03-22T09:02:36;8.15;;;7.28;;
16179;SDS011;8196;49.428;10.906;2024-03-22T09:05:03;7.55;;;6.43;;
16179;SDS011;8196;49.428;10.906;2024-03-22T09:07:29;5.95;;;5.35;;
16179;SDS011;8196;49.428;10.906;2024-03-22T09:09:56;8.32;;;6.70;;
16179;SDS011;8196;49.428;10.906;2024-03-22T09:12:22;9.40;;;7.88;;
16179;SDS011;8196;49.428;10.906;2024-03-22T09:14:48;11.07;;;9.10;;
16179;SDS011;8196;49.428;10.906;2024-03-22T09:17:14;9.70;;;7.82;;
16179;SDS011;8196;49.428;10.906;2024-03-22T09:19:41;7.75;;;6.82;;
16179;SDS011;8196;49.428;10.906;2024-03-22T09:22:07;8.75;;;6.93;;
16179;SDS011;8196;49.428;10.906;2024-03-22T09:24:33;10.40;;;8.52;;
16179;SDS011;8196;49.428;10.906;2024-03-22T09:26:59;13.18;;;9.77;;
16179;SDS011;8196;49.428;10.906;2024-03-22T09:29:26;11.07;;;7.97;;
16179;SDS011;8196;49.428;10.906;2024-03-22T09:31:52;11.83;;;8.60;;
16179;SDS011;8196;49.428;10.906;2024-03-22T09:34:18;12.77;;;9.27;;
16179;SDS011;8196;49.428;10.906;2024-03-22T09:36:45;10.27;;;8.07;;
16179;SDS011;8196;49.428;10.906;2024-03-22T09:39:11;10.18;;;8.45;;
16179;SDS011;8196;49.428;10.906;2024-03-22T09:41:41;10.35;;;8.70;;
16179;SDS011;8196;49.428;10.906;2024-03-22T09:44:08;10.73;;;8.38;;
16179;SDS011;8196;49.428;10.906;2024-03-22T09:46:39;10.03;;;8.43;;
16179;SDS011;8196;49.428;10.906;2024-03-22T09:49:06;9.73;;;7.55;;
16179;SDS011;8196;49.428;10.906;2024-03-22T09:51:33;12.43;;;8.38;;
16179;SDS011;8196;49.428;10.906;2024-03-22T09:54:00;9.43;;;7.32;;
16179;SDS011;8196;49.428;10.906;2024-03-22T09:56:27;10.43;;;7.20;;
16179;SDS011;8196;49.428;10.906;2024-03-22T09:58:55;9.40;;;7.32;;
16179;SDS011;8196;49.428;10.906;2024-03-22T10:01:21;9.30;;;6.95;;
16179;SDS011;8196;49.428;10.906;2024-03-22T10:03:49;8.90;;;7.22;;
16179;SDS011;8196;49.428;10.906;2024-03-22T10:06:17;7.88;;;7.07;;
16179;SDS011;8196;49.428;10.906;2024-03-22T10:08:44;7.70;;;6.82;;
16179;SDS011;8196;49.428;10.906;2024-03-22T10:11:10;7.07;;;5.90;;
16179;SDS011;8196;49.428;10.906;2024-03-22T10:13:37;7.97;;;6.80;;
16179;SDS011;8196;49.428;10.906;2024-03-22T10:16:04;8.38;;;5.90;;
16179;SDS011;8196;49.428;10.906;2024-03-22T10:18:32;6.78;;;6.00;;
16179;SDS011;8196;49.428;10.906;2024-03-22T10:21:00;6.17;;;5.33;;
16179;SDS011;8196;49.428;10.906;2024-03-22T10:23:28;7.75;;;5.90;;
16179;SDS011;8196;49.428;10.906;2024-03-22T10:25:56;7.47;;;5.22;;
16179;SDS011;8196;49.428;10.906;2024-03-22T10:28:24;6.43;;;5.60;;
16179;SDS011;8196;49.428;10.906;2024-03-22T10:30:50;5.90;;;4.78;;
16179;SDS011;8196;49.428;10.906;2024-03-22T10:33:19;5.10;;;4.25;;
16179;SDS011;8196;49.428;10.906;2024-03-22T10:35:46;4.95;;;4.10;;
16179;SDS011;8196;49.428;10.906;2024-03-22T10:38:14;4.80;;;3.90;;
16179;SDS011;8196;49.428;10.906;2024-03-22T10:40:44;4.72;;;3.88;;
16179;SDS011;8196;49.428;10.906;2024-03-22T10:43:12;5.40;;;4.20;;
16179;SDS011;8196;49.428;10.906;2024-03-22T10:45:38;5.15;;;4.55;;
16179;SDS011;8196;49.428;10.906;2024-03-22T10:48:09;5.20;;;4.32;;
16179;SDS011;8196;49.428;10.906;2024-03-22T10:50:38;6.40;;;4.67;;
16179;SDS011;8196;49.428;10.906;2024-03-22T10:53:06;5.57;;;4.53;;
16179;SDS011;8196;49.428;10.906;2024-03-22T10:55:33;6.75;;;4.60;;
16179;SDS011;8196;49.428;10.906;2024-03-22T10:58:01;5.50;;;4.30;;
16179;SDS011;8196;49.428;10.906;2024-03-22T11:00:29;5.25;;;4.43;;
16179;SDS011;8196;49.428;10.906;2024-03-22T11:02:56;6.55;;;4.72;;
16179;SDS011;8196;49.428;10.906;2024-03-22T11:05:22;6.30;;;4.75;;
16179;SDS011;8196;49.428;10.906;2024-03-22T11:08:04;6.40;;;5.50;;
16179;SDS011;8196;49.428;10.906;2024-03-22T11:10:34;7.35;;;4.85;;
16179;SDS011;8196;49.428;10.906;2024-03-22T11:13:01;5.93;;;5.10;;
16179;SDS011;8196;49.428;10.906;2024-03-22T11:15:28;7.18;;;5.20;;
16179;SDS011;8196;49.428;10.906;2024-03-22T11:17:55;6.40;;;5.17;;
16179;SDS011;8196;49.428;10.906;2024-03-22T11:20:21;5.57;;;4.63;;
16179;SDS011;8196;49.428;10.906;2024-03-22T11:22:48;5.78;;;4.68;;
16179;SDS011;8196;49.428;10.906;2024-03-22T11:25:14;6.13;;;5.05;;
16179;SDS011;8196;49.428;10.906;2024-03-22T11:27:41;6.70;;;5.20;;
16179;SDS011;8196;49.428;10.906;2024-03-22T11:30:07;6.10;;;5.10;;
16179;SDS011;8196;49.428;10.906;2024-03-22T11:32:33;7.15;;;5.10;;
16179;SDS011;8196;49.428;10.906;2024-03-22T11:35:09;5.33;;;4.70;;
16179;SDS011;8196;49.428;10.906;2024-03-22T11:37:37;6.53;;;5.22;;
16179;SDS011;8196;49.428;10.906;2024-03-22T11:40:04;6.60;;;5.90;;
16179;SDS011;8196;49.428;10.906;2024-03-22T11:42:32;5.82;;;5.20;;
16179;SDS011;8196;49.428;10.906;2024-03-22T11:45:00;6.70;;;5.70;;
16179;SDS011;8196;49.428;10.906;2024-03-22T11:47:27;6.65;;;5.25;;
16179;SDS011;8196;49.428;10.906;2024-03-22T11:49:55;6.15;;;5.13;;
16179;SDS011;8196;49.428;10.906;2024-03-22T11:52:25;7.32;;;5.05;;
16179;SDS011;8196;49.428;10.906;2024-03-22T11:54:51;5.75;;;5.15;;
16179;SDS011;8196;49.428;10.906;2024-03-22T11:57:20;4.82;;;4.20;;
16179;SDS011;8196;49.428;10.906;2024-03-22T11:59:46;5.57;;;4.77;;
16179;SDS011;8196;49.428;10.906;2024-03-22T12:02:12;5.35;;;4.25;;
16179;SDS011;8196;49.428;10.906;2024-03-22T12:04:40;5.15;;;4.15;;
16179;SDS011;8196;49.428;10.906;2024-03-22T12:07:10;6.28;;;5.00;;
16179;SDS011;8196;49.428;10.906;2024-03-22T12:09:36;6.00;;;5.40;;
16179;SDS011;8196;49.428;10.906;2024-03-22T12:12:03;6.15;;;4.43;;
16179;SDS011;8196;49.428;10.906;2024-03-22T12:14:30;4.05;;;3.53;;
16179;SDS011;8196;49.428;10.906;2024-03-22T12:16:56;5.32;;;3.90;;
16179;SDS011;8196;49.428;10.906;2024-03-22T12:19:22;5.20;;;4.07;;
16179;SDS011;8196;49.428;10.906;2024-03-22T12:21:49;3.95;;;3.50;;
16179;SDS011;8196;49.428;10.906;2024-03-22T12:24:15;4.47;;;3.47;;
16179;SDS011;8196;49.428;10.906;2024-03-22T12:26:41;4.13;;;3.72;;
16179;SDS011;8196;49.428;10.906;2024-03-22T12:29:08;3.70;;;3.40;;
16179;SDS011;8196;49.428;10.906;2024-03-22T12:31:37;4.47;;;3.40;;
16179;SDS011;8196;49.428;10.906;2024-03-22T12:34:03;3.17;;;2.88;;
16179;SDS011;8196;49.428;10.906;2024-03-22T12:36:29;4.13;;;3.63;;
16179;SDS011;8196;49.428;10.906;2024-03-22T12:38:56;4.38;;;3.97;;
16179;SDS011;8196;49.428;10.906;2024-03-22T12:41:22;4.22;;;3.83;;
16179;SDS011;8196;49.428;10.906;2024-03-22T12:43:48;4.07;;;3.45;;
16179;SDS011;8196;49.428;10.906;2024-03-22T12:46:15;4.83;;;4.33;;
16179;SDS011;8196;49.428;10.906;2024-03-22T12:48:41;4.53;;;3.20;;
16179;SDS011;8196;49.428;10.906;2024-03-22T12:51:07;4.50;;;3.72;;
16179;SDS011;8196;49.428;10.906;2024-03-22T12:53:34;4.63;;;4.13;;
16179;SDS011;8196;49.428;10.906;2024-03-22T12:56:00;5.15;;;4.22;;
16179;SDS011;8196;49.428;10.906;2024-03-22T12:58:28;3.92;;;3.40;;
16179;SDS011;8196;49.428;10.906;2024-03-22T13:00:54;3.97;;;3.28;;
16179;SDS011;8196;49.428;10.906;2024-03-22T13:03:20;3.83;;;3.05;;
16179;SDS011;8196;49.428;10.906;2024-03-22T13:05:47;3.88;;;3.13;;
16179;SDS011;8196;49.428;10.906;2024-03-22T13:08:13;3.75;;;3.35;;
16179;SDS011;8196;49.428;10.906;2024-03-22T13:10:39;4.07;;;3.20;;
16179;SDS011;8196;49.428;10.906;2024-03-22T13:13:09;3.90;;;3.50;;
16179;SDS011;8196;49.428;10.906;2024-03-22T13:15:35;4.57;;;3.92;;
16179;SDS011;8196;49.428;10.906;2024-03-22T13:18:03;4.47;;;3.45;;
16179;SDS011;8196;49.428;10.906;2024-03-22T13:20:29;4.20;;;3.80;;
16179;SDS011;8196;49.428;10.906;2024-03-22T13:22:56;4.35;;;3.75;;
16179;SDS011;8196;49.428;10.906;2024-03-22T13:25:22;3.17;;;2.88;;
16179;SDS011;8196;49.428;10.906;2024-03-22T13:27:48;3.83;;;3.42;;
16179;SDS011;8196;49.428;10.906;2024-03-22T13:30:17;4.30;;;3.70;;
16179;SDS011;8196;49.428;10.906;2024-03-22T13:32:43;3.22;;;2.92;;
16179;SDS011;8196;49.428;10.906;2024-03-22T13:35:10;4.10;;;3.40;;
16179;SDS011;8196;49.428;10.906;2024-03-22T13:37:36;4.28;;;3.30;;
16179;SDS011;8196;49.428;10.906;2024-03-22T13:40:02;4.72;;;3.35;;
16179;SDS011;8196;49.428;10.906;2024-03-22T13:42:29;2.88;;;2.47;;
16179;SDS011;8196;49.428;10.906;2024-03-22T13:44:55;3.23;;;2.80;;
16179;SDS011;8196;49.428;10.906;2024-03-22T13:47:23;2.60;;;2.40;;
16179;SDS011;8196;49.428;10.906;2024-03-22T13:49:49;3.53;;;2.47;;
16179;SDS011;8196;49.428;10.906;2024-03-22T13:52:16;2.85;;;2.58;;
16179;SDS011;8196;49.428;10.906;2024-03-22T13:54:43;3.50;;;3.00;;
16179;SDS011;8196;49.428;10.906;2024-03-22T13:57:09;3.87;;;2.87;;
16179;SDS011;8196;49.428;10.906;2024-03-22T13:59:36;3.03;;;2.67;;
16179;SDS011;8196;49.428;10.906;2024-03-22T14:02:03;2.97;;;2.60;;
16179;SDS011;8196;49.428;10.906;2024-03-22T14:04:29;3.60;;;2.95;;
16179;SDS011;8196;49.428;10.906;2024-03-22T14:06:56;2.83;;;2.40;;
16179;SDS011;8196;49.428;10.906;2024-03-22T14:09:22;2.97;;;2.67;;
16179;SDS011;8196;49.428;10.906;2024-03-22T14:11:49;3.53;;;2.38;;
16179;SDS011;8196;49.428;10.906;2024-03-22T14:14:15;3.47;;;2.47;;
16179;SDS011;8196;49.428;10.906;2024-03-22T14:16:41;2.75;;;1.88;;
16179;SDS011;8196;49.428;10.906;2024-03-22T14:19:08;2.80;;;2.25;;
16179;SDS011;8196;49.428;10.906;2024-03-22T14:21:34;2.50;;;2.00;;
16179;SDS011;8196;49.428;10.906;2024-03-22T14:24:01;2.83;;;2.40;;
16179;SDS011;8196;49.428;10.906;2024-03-22T14:26:28;2.40;;;2.03;;
16179;SDS011;8196;49.428;10.906;2024-03-22T14:28:55;3.05;;;2.33;;
16179;SDS011;8196;49.428;10.906;2024-03-22T14:31:21;3.15;;;2.55;;
16179;SDS011;8196;49.428;10.906;2024-03-22T14:33:47;3.63;;;3.05;;
16179;SDS011;8196;49.428;10.906;2024-03-22T14:36:13;2.80;;;2.50;;
16179;SDS011;8196;49.428;10.906;2024-03-22T14:38:42;3.05;;;2.30;;
16179;SDS011;8196;49.428;10.906;2024-03-22T14:41:08;3.28;;;2.80;;